Time;durP1;ratioP1;P1;durP2;ratioP2;P2;SDS_P1;SDS_P2;PMS_P1;PMS_P2;Temp;Humidity;BMP_temperature;BMP_pressure;BME280_temperature;BME280_humidity;BME280_pressure;Samples;Min_cycle;Max_cycle;Signal;HPM_P1;HPM_P2
2021/12/17 00:07:05;;;;;;;;;;;;;;;6.09;100.00;103968.28;4994173;28;19925;-78
2021/12/17 00:09:30;;;;;;;;;;;;;;;6.10;100.00;103962.28;5001877;28;19949;-78
2021/12/17 00:11:56;;;;;;;;;;;;;;;6.05;100.00;103963.50;4993113;28;19929;-78
2021/12/17 00:14:37;;;;;;;;;;;;;;;5.94;100.00;103964.97;4993437;28;19960;-78
2021/12/17 00:17:04;;;;;;;;;;;;;;;6.00;100.00;103971.66;4992764;28;19917;-77
2021/12/17 00:49:30;;;;;;;;;;;;;;;6.13;100.00;103976.47;5025655;28;19928;-78
2021/12/17 00:51:59;;;;;;;;;;;;;;;6.13;100.00;103966.00;5025980;28;19917;-78
2021/12/17 00:54:34;;;;;;;;;;;;;;;6.14;100.00;103962.59;5012138;28;19921;-77
2021/12/17 00:57:03;;;;;;;;;;;;;;;6.15;100.00;103969.69;5030544;28;19917;-78
2021/12/17 00:59:33;;;;;;;;;;;;;;;6.17;100.00;103963.84;5030422;28;20009;-78
2021/12/17 01:02:00;;;;;;;;;;;;;;;6.18;100.00;103965.69;5021390;28;19948;-78
2021/12/17 01:04:25;;;;;;;;;;;;;;;6.22;100.00;103964.34;5022147;28;19917;-78
2021/12/17 01:06:52;;;;;;;;;;;;;;;6.26;100.00;103958.63;5009951;28;20367;-78
2021/12/17 01:09:20;;;;;;;;;;;;;;;6.28;100.00;103963.28;5025989;28;19947;-78
2021/12/17 01:11:46;;;;;;;;;;;;;;;6.34;100.00;103959.41;5028655;28;19917;-79
2021/12/17 01:14:11;;;;;;;;;;;;;;;6.26;100.00;103951.72;5029372;28;20337;-78
2021/12/17 01:16:37;;;;;;;;;;;;;;;6.29;100.00;103949.44;5021019;28;19920;-78
2021/12/17 01:21:38;;;;;;;;;;;;;;;6.19;100.00;103948.31;5040710;28;19982;-78
2021/12/17 01:24:18;;;;;;;;;;;;;;;6.17;100.00;103950.78;5018560;28;20027;-79
2021/12/17 01:35:22;;;;;;;;;;;;;;;6.26;100.00;103954.34;5044926;28;19947;-77
2021/12/17 01:43:01;;;;;;;;;;;;;;;6.28;100.00;103957.13;5055678;28;19995;-78
2021/12/17 01:45:31;;;;;;;;;;;;;;;6.28;100.00;103949.28;5038065;28;19924;-78
2021/12/17 01:48:02;;;;;;;;;;;;;;;6.31;100.00;103959.09;5037541;28;19970;-78
2021/12/17 02:01:26;;;;;;;;;;;;;;;6.36;100.00;103950.06;5041456;28;19962;-77
2021/12/17 02:03:51;;;;;;;;;;;;;;;6.39;100.00;103947.75;5037448;28;19994;-77
2021/12/17 02:06:18;;;;;;;;;;;;;;;6.37;100.00;103949.25;5036539;28;20038;-78
2021/12/17 02:08:46;;;;;;;;;;;;;;;6.43;100.00;103947.28;5011257;28;19921;-77
2021/12/17 02:11:49;;;;;;;;;;;;;;;6.36;100.00;103945.75;5017623;28;19917;-77
2021/12/17 02:19:58;;;;;;;;;;;;;;;6.36;100.00;103944.81;5049933;28;19923;-78
2021/12/17 02:33:13;;;;;;;;;;;;;;;6.39;100.00;103935.59;5035024;28;19917;-78
2021/12/17 02:35:43;;;;;;;;;;;;;;;6.35;100.00;103937.72;5021210;28;19953;-79
2021/12/17 02:38:12;;;;;;;;;;;;;;;6.29;100.00;103932.78;5024323;28;19932;-78
2021/12/17 02:46:07;;;;;;;;;;;;;;;6.34;100.00;103947.28;5049759;28;19986;-78
2021/12/17 02:48:34;;;;;;;;;;;;;;;6.29;100.00;103943.25;5029558;28;20345;-78
2021/12/17 02:51:00;;;;;;;;;;;;;;;6.33;100.00;103948.03;5026016;28;19917;-78
2021/12/17 02:53:29;;;;;;;;;;;;;;;6.30;100.00;103939.88;5046966;28;19923;-78
2021/12/17 02:55:56;;;;;;;;;;;;;;;6.34;100.00;103946.34;5035481;28;19920;-78
2021/12/17 02:58:26;;;;;;;;;;;;;;;6.32;100.00;103943.56;5016767;28;20007;-78
2021/12/17 03:00:52;;;;;;;;;;;;;;;6.35;100.00;103937.72;5025782;28;19916;-78
2021/12/17 03:03:20;;;;;;;;;;;;;;;6.34;100.00;103935.88;5030668;28;19952;-78
2021/12/17 03:05:46;;;;;;;;;;;;;;;6.31;100.00;103931.25;5023245;28;19916;-78
2021/12/17 03:08:15;;;;;;;;;;;;;;;6.29;100.00;103928.50;5036635;28;19943;-78
2021/12/17 03:10:42;;;;;;;;;;;;;;;6.29;100.00;103943.25;5029447;28;19924;-78
2021/12/17 03:13:07;;;;;;;;;;;;;;;6.34;100.00;103941.09;5016368;28;19921;-78
2021/12/17 03:15:49;;;;;;;;;;;;;;;6.33;100.00;103937.56;5016939;28;19961;-78
2021/12/17 03:23:44;;;;;;;;;;;;;;;6.34;100.00;103931.59;5039919;28;19924;-77
2021/12/17 03:26:15;;;;;;;;;;;;;;;6.38;100.00;103938.94;5034220;28;19917;-77
2021/12/17 03:28:43;;;;;;;;;;;;;;;6.40;100.00;103937.44;5016968;28;19917;-78
2021/12/17 03:31:09;;;;;;;;;;;;;;;6.41;100.00;103927.88;5018835;28;20012;-78
2021/12/17 03:33:38;;;;;;;;;;;;;;;6.38;100.00;103928.47;5016045;28;19924;-77
2021/12/17 03:36:03;;;;;;;;;;;;;;;6.37;100.00;103937.13;5016366;28;19924;-78
2021/12/17 03:38:29;;;;;;;;;;;;;;;6.44;100.00;103942.19;5015946;28;20273;-78
2021/12/17 03:41:10;;;;;;;;;;;;;;;6.46;100.00;103930.22;5021172;28;20273;-78
2021/12/17 03:43:35;;;;;;;;;;;;;;;6.49;100.00;103931.28;5032325;28;19917;-78
2021/12/17 03:46:01;;;;;;;;;;;;;;;6.47;100.00;103928.50;5015627;28;19921;-78
2021/12/17 03:48:30;;;;;;;;;;;;;;;6.50;100.00;103927.91;5016009;28;20377;-77
2021/12/17 03:50:55;;;;;;;;;;;;;;;6.49;100.00;103933.91;5034429;28;19924;-78
2021/12/17 03:53:20;;;;;;;;;;;;;;;6.48;100.00;103935.59;5017773;28;19920;-78
2021/12/17 03:55:46;;;;;;;;;;;;;;;6.52;100.00;103929.91;5015999;28;19917;-78
2021/12/17 03:58:12;;;;;;;;;;;;;;;6.55;100.00;103931.91;5001423;28;19958;-78
2021/12/17 04:00:37;;;;;;;;;;;;;;;6.55;100.00;103931.91;5023925;28;19920;-78
2021/12/17 04:03:03;;;;;;;;;;;;;;;6.53;100.00;103941.31;4999402;28;19929;-79
2021/12/17 04:05:30;;;;;;;;;;;;;;;6.54;100.00;103944.09;5033678;28;20410;-78
2021/12/17 04:07:56;;;;;;;;;;;;;;;6.55;100.00;103945.91;5029202;28;19917;-78
2021/12/17 04:10:23;;;;;;;;;;;;;;;6.56;100.00;103944.25;5036222;28;19917;-78
2021/12/17 04:15:29;;;;;;;;;;;;;;;6.60;100.00;103942.09;5053470;28;20341;-79
2021/12/17 04:18:00;;;;;;;;;;;;;;;6.62;100.00;103947.50;5028075;28;19963;-77
2021/12/17 04:20:26;;;;;;;;;;;;;;;6.59;100.00;103945.47;5019283;28;20722;-79
2021/12/17 04:22:51;;;;;;;;;;;;;;;6.62;100.00;103942.25;5017647;28;19917;-79
2021/12/17 04:25:17;;;;;;;;;;;;;;;6.63;100.00;103936.22;5014647;28;19921;-78
2021/12/17 04:27:43;;;;;;;;;;;;;;;6.61;100.00;103933.44;5022923;28;19913;-79
2021/12/17 04:30:09;;;;;;;;;;;;;;;6.63;100.00;103941.47;5022953;28;19916;-79
2021/12/17 04:32:34;;;;;;;;;;;;;;;6.68;100.00;103944.53;5036452;28;19932;-79
2021/12/17 04:34:59;;;;;;;;;;;;;;;6.68;100.00;103947.16;5019213;28;19913;-79
2021/12/17 04:37:28;;;;;;;;;;;;;;;6.63;100.00;103947.66;5019670;28;19938;-79
2021/12/17 04:39:53;;;;;;;;;;;;;;;6.63;100.00;103946.69;5029700;28;19912;-79
2021/12/17 04:42:27;;;;;;;;;;;;;;;6.66;100.00;103957.47;5019755;28;19916;-79
2021/12/17 04:44:56;;;;;;;;;;;;;;;6.58;100.00;103959.31;5019586;28;19924;-78
2021/12/17 04:58:29;;;;;;;;;;;;;;;6.55;100.00;103937.16;5056582;28;19963;-78
2021/12/17 05:00:55;;;;;;;;;;;;;;;6.56;100.00;103941.63;5027410;28;19963;-79
2021/12/17 05:03:20;;;;;;;;;;;;;;;6.55;100.00;103942.38;5022031;28;20028;-78
2021/12/17 05:05:46;;;;;;;;;;;;;;;6.53;100.00;103950.09;5035034;28;19917;-78
2021/12/17 05:08:15;;;;;;;;;;;;;;;6.49;100.00;103947.91;5022487;28;19927;-78
2021/12/17 05:18:14;;;;;;;;;;;;;;;6.55;100.00;103945.91;5030768;28;19952;-79
2021/12/17 05:19:19;;;;;;;;;;;;;;;6.47;100.00;103936.38;5052065;28;19974;-79
2021/12/17 05:21:45;;;;;;;;;;;;;;;6.49;100.00;103949.63;5038003;28;19943;-79
2021/12/17 05:24:10;;;;;;;;;;;;;;;6.49;100.00;103947.00;5035525;28;20395;-78
2021/12/17 05:26:35;;;;;;;;;;;;;;;6.46;100.00;103948.53;5006659;28;19921;-79
2021/12/17 05:29:02;;;;;;;;;;;;;;;6.45;100.00;103940.53;5024326;28;19940;-79
2021/12/17 05:31:27;;;;;;;;;;;;;;;6.46;100.00;103938.06;5021527;28;20199;-79
2021/12/17 05:33:53;;;;;;;;;;;;;;;6.41;100.00;103938.34;5037503;28;20644;-79
2021/12/17 05:36:21;;;;;;;;;;;;;;;6.43;100.00;103948.22;5035222;28;19920;-79
2021/12/17 05:38:48;;;;;;;;;;;;;;;6.43;100.00;103947.28;5035879;28;19924;-78
2021/12/17 05:41:13;;;;;;;;;;;;;;;6.40;100.00;103954.81;5018220;28;19917;-78
2021/12/17 05:43:39;;;;;;;;;;;;;;;6.39;100.00;103961.75;5017947;28;19917;-78
2021/12/17 05:46:10;;;;;;;;;;;;;;;6.41;100.00;103960.22;5001585;28;19928;-78
2021/12/17 05:48:38;;;;;;;;;;;;;;;6.45;100.00;103969.31;5022301;28;19923;-78
2021/12/17 05:51:07;;;;;;;;;;;;;;;6.42;100.00;103962.06;5049009;28;20550;-78
2021/12/17 05:53:33;;;;;;;;;;;;;;;6.40;100.00;103958.38;5037744;28;19958;-78
2021/12/17 05:55:58;;;;;;;;;;;;;;;6.40;100.00;103955.75;5028669;28;19981;-79
2021/12/17 05:58:24;;;;;;;;;;;;;;;6.44;100.00;103959.63;5020699;28;19919;-78
2021/12/17 06:00:49;;;;;;;;;;;;;;;6.45;100.00;103967.63;5018631;28;20004;-78
2021/12/17 06:03:15;;;;;;;;;;;;;;;6.45;100.00;103962.38;5021639;28;19923;-78
2021/12/17 06:05:40;;;;;;;;;;;;;;;6.47;100.00;103966.06;5028801;28;19917;-78
2021/12/17 06:08:10;;;;;;;;;;;;;;;6.44;100.00;103977.94;5041526;28;19984;-78
2021/12/17 06:10:37;;;;;;;;;;;;;;;6.41;100.00;103970.69;5036579;28;19943;-79
2021/12/17 06:13:04;;;;;;;;;;;;;;;6.44;100.00;103971.00;5036787;28;20502;-78
2021/12/17 06:15:29;;;;;;;;;;;;;;;6.45;100.00;103979.81;5029497;28;19916;-79
2021/12/17 06:17:55;;;;;;;;;;;;;;;6.44;100.00;103983.19;5031909;28;19917;-79
2021/12/17 06:20:22;;;;;;;;;;;;;;;6.45;100.00;103985.03;5034820;28;19925;-80
2021/12/17 06:22:47;;;;;;;;;;;;;;;6.47;100.00;103980.88;5024942;28;19924;-80
2021/12/17 06:25:13;;;;;;;;;;;;;;;6.46;100.00;103993.03;5024101;28;19921;-79
2021/12/17 06:27:39;;;;;;;;;;;;;;;6.50;100.00;103994.28;5019900;28;19913;-79
2021/12/17 06:30:06;;;;;;;;;;;;;;;6.55;100.00;103992.13;5017038;28;19917;-78
2021/12/17 06:32:31;;;;;;;;;;;;;;;6.52;100.00;103994.44;5025965;28;19916;-79
2021/12/17 06:34:56;;;;;;;;;;;;;;;6.55;100.00;103993.03;5036200;28;20414;-79
2021/12/17 06:37:27;;;;;;;;;;;;;;;6.57;100.00;103996.78;5036169;28;19917;-78
2021/12/17 06:39:52;;;;;;;;;;;;;;;6.59;100.00;104000.47;5034626;28;19943;-78
2021/12/17 06:42:18;;;;;;;;;;;;;;;6.54;100.00;103993.84;5043063;28;19920;-79
2021/12/17 06:44:46;;;;;;;;;;;;;;;6.56;100.00;103992.28;5034462;28;19917;-79
2021/12/17 07:00:16;;;;;;;;;;;;;;;6.61;100.00;103990.16;5048600;28;20344;-79
2021/12/17 07:10:55;;;;;;;;;;;;;;;6.56;100.00;103991.38;5021651;28;20264;-80
2021/12/17 07:20:11;;;;;;;;;;;;;;;6.61;100.00;104006.78;5051165;28;19919;-79
2021/12/17 07:22:04;;;;;;;;;;;;;;;6.63;100.00;103999.06;5042879;28;19917;-81
2021/12/17 07:24:50;;;;;;;;;;;;;;;6.65;100.00;103995.84;5030045;28;19917;-80
2021/12/17 07:33:06;;;;;;;;;;;;;;;6.59;100.00;104005.69;5033669;28;19975;-81
2021/12/17 07:35:50;;;;;;;;;;;;;;;6.58;100.00;104008.16;5016473;28;19952;-80
2021/12/17 07:38:39;;;;;;;;;;;;;;;6.58;100.00;104006.44;5032681;28;19917;-81
2021/12/17 07:41:04;;;;;;;;;;;;;;;6.62;100.00;104005.09;5033395;28;19947;-80
2021/12/17 07:45:58;;;;;;;;;;;;;;;6.59;100.00;104010.94;5052476;28;19966;-78
2021/12/17 07:48:26;;;;;;;;;;;;;;;6.62;100.00;104019.09;5019259;28;19967;-79
2021/12/17 07:50:51;;;;;;;;;;;;;;;6.66;100.00;104022.94;5036865;28;20353;-80
2021/12/17 07:53:17;;;;;;;;;;;;;;;6.71;100.00;104015.56;5034675;28;19928;-79
2021/12/17 07:55:42;;;;;;;;;;;;;;;6.75;100.00;104023.91;5035074;28;20310;-80
2021/12/17 07:58:10;;;;;;;;;;;;;;;6.73;100.00;104024.53;5035300;28;19917;-79
2021/12/17 08:00:35;;;;;;;;;;;;;;;6.70;100.00;104017.28;5035143;28;20011;-79
2021/12/17 08:03:01;;;;;;;;;;;;;;;6.68;100.00;104018.81;5034824;28;20027;-80
2021/12/17 08:05:26;;;;;;;;;;;;;;;6.69;100.00;104010.19;5039109;28;19917;-80
2021/12/17 08:07:52;;;;;;;;;;;;;;;6.63;100.00;104025.25;5038459;28;19925;-78
2021/12/17 08:10:17;;;;;;;;;;;;;;;6.76;100.00;104027.47;5040047;28;19920;-79
2021/12/17 08:12:44;;;;;;;;;;;;;;;6.76;100.00;104027.47;5039502;28;20002;-80
2021/12/17 08:15:11;;;;;;;;;;;;;;;6.76;100.00;104025.75;5037518;28;19917;-79
2021/12/17 08:25:48;;;;;;;;;;;;;;;6.78;100.00;104023.31;5057560;28;19923;-81
2021/12/17 08:28:15;;;;;;;;;;;;;;;6.78;100.00;104025.91;5025194;28;19994;-79
2021/12/17 08:30:41;;;;;;;;;;;;;;;6.79;100.00;104017.28;5040131;28;19924;-80
2021/12/17 08:33:06;;;;;;;;;;;;;;;6.88;100.00;104012.06;5039487;28;19917;-80
2021/12/17 08:35:33;;;;;;;;;;;;;;;6.93;100.00;104016.06;5039345;28;19921;-80
2021/12/17 08:37:58;;;;;;;;;;;;;;;7.00;100.00;104018.53;5039030;28;19924;-80
2021/12/17 08:40:26;;;;;;;;;;;;;;;7.01;100.00;104009.91;5041700;28;19916;-79
2021/12/17 08:42:53;;;;;;;;;;;;;;;6.97;100.00;104011.28;5038748;28;19917;-80
2021/12/17 08:45:20;;;;;;;;;;;;;;;6.97;100.00;104019.13;5039405;28;19979;-79
2021/12/17 08:47:47;;;;;;;;;;;;;;;7.04;100.00;104010.22;5038563;28;19920;-80
2021/12/17 08:50:13;;;;;;;;;;;;;;;7.12;100.00;104011.91;5038410;28;19920;-81
2021/12/17 08:52:38;;;;;;;;;;;;;;;7.13;100.00;104011.16;5039346;28;19923;-80
2021/12/17 08:55:05;;;;;;;;;;;;;;;7.19;100.00;104010.81;5038351;28;19924;-80
2021/12/17 08:57:33;;;;;;;;;;;;;;;7.14;100.00;104009.44;5038728;28;19917;-80
2021/12/17 09:00:04;;;;;;;;;;;;;;;7.22;100.00;104005.91;5038669;28;19917;-80
2021/12/17 09:02:29;;;;;;;;;;;;;;;7.22;100.00;104008.50;5038660;28;20030;-80
2021/12/17 09:04:55;;;;;;;;;;;;;;;7.25;100.00;104016.69;5038358;28;20384;-80
2021/12/17 09:07:21;;;;;;;;;;;;;;;7.25;100.00;104015.78;5038529;28;19923;-79
2021/12/17 09:09:48;;;;;;;;;;;;;;;7.30;100.00;104019.78;5037165;28;19921;-79
2021/12/17 09:12:13;;;;;;;;;;;;;;;7.30;100.00;104023.34;5038425;28;19920;-81
2021/12/17 09:14:38;;;;;;;;;;;;;;;7.27;100.00;104011.59;5038246;28;19923;-78
2021/12/17 09:17:04;;;;;;;;;;;;;;;7.25;100.00;104007.91;5038062;28;19917;-79
2021/12/17 09:19:29;;;;;;;;;;;;;;;7.31;100.00;104008.53;5022081;28;19924;-79
2021/12/17 09:21:54;;;;;;;;;;;;;;;7.33;100.00;104013.16;5038538;28;20410;-79
2021/12/17 09:24:20;;;;;;;;;;;;;;;7.30;100.00;104010.22;5022280;28;20012;-78
2021/12/17 09:26:45;;;;;;;;;;;;;;;7.37;100.00;104017.91;5038512;28;19943;-77
2021/12/17 09:29:11;;;;;;;;;;;;;;;7.42;100.00;104025.31;5038449;28;19923;-78
2021/12/17 09:31:37;;;;;;;;;;;;;;;7.47;100.00;104018.81;5022749;28;19936;-79
2021/12/17 09:34:02;;;;;;;;;;;;;;;7.51;100.00;104023.63;5037855;28;19916;-79
2021/12/17 09:36:28;;;;;;;;;;;;;;;7.34;100.00;104024.56;5056038;28;20500;-79
2021/12/17 09:39:00;;;;;;;;;;;;;;;7.34;100.00;104021.94;5037796;28;19917;-79
2021/12/17 09:41:29;;;;;;;;;;;;;;;7.40;100.00;104026.88;5038414;28;19948;-80
2021/12/17 09:43:54;;;;;;;;;;;;;;;7.37;100.00;104030.09;5021699;28;19974;-81
2021/12/17 09:46:19;;;;;;;;;;;;;;;7.42;100.00;104022.69;5021259;28;19932;-80
2021/12/17 09:49:00;;;;;;;;;;;;;;;7.41;100.00;104027.03;5038067;28;19947;-79
2021/12/17 09:51:26;;;;;;;;;;;;;;;7.37;100.00;104037.97;5055883;28;20288;-78
2021/12/17 09:53:52;;;;;;;;;;;;;;;7.42;100.00;104038.44;5037203;28;19920;-81
2021/12/17 09:56:18;;;;;;;;;;;;;;;7.42;100.00;104034.09;5037870;28;19920;-78
2021/12/17 09:58:45;;;;;;;;;;;;;;;7.53;100.00;104041.34;5037877;28;19990;-79
2021/12/17 10:01:10;;;;;;;;;;;;;;;7.48;100.00;104026.84;5037928;28;19916;-79
2021/12/17 10:03:36;;;;;;;;;;;;;;;7.57;100.00;104032.09;5037714;28;19930;-79
2021/12/17 10:06:01;;;;;;;;;;;;;;;7.55;100.00;104034.56;5037444;28;19921;-80
2021/12/17 10:08:26;;;;;;;;;;;;;;;7.55;100.00;104026.69;5037613;28;19913;-78
2021/12/17 10:10:59;;;;;;;;;;;;;;;7.65;100.00;104035.47;5038103;28;19999;-78
2021/12/17 10:13:29;;;;;;;;;;;;;;;7.66;100.00;104037.31;5037706;28;19917;-79
2021/12/17 10:15:57;;;;;;;;;;;;;;;7.59;100.00;104034.88;5037540;28;19917;-79
2021/12/17 10:18:49;;;;;;;;;;;;;;;7.65;100.00;104030.22;5021618;28;19927;-79
2021/12/17 10:21:19;;;;;;;;;;;;;;;7.60;100.00;104032.41;5034972;28;19959;-78
2021/12/17 10:23:45;;;;;;;;;;;;;;;7.52;100.00;104030.72;5037196;28;19917;-79
2021/12/17 10:26:11;;;;;;;;;;;;;;;7.51;100.00;104036.72;5034921;28;19985;-80
2021/12/17 10:28:51;;;;;;;;;;;;;;;7.45;100.00;104034.41;5035821;28;19923;-79
2021/12/17 10:31:17;;;;;;;;;;;;;;;7.42;100.00;104028.84;5037420;28;19921;-79
2021/12/17 10:33:48;;;;;;;;;;;;;;;7.50;100.00;104020.09;5037185;28;19986;-79
2021/12/17 10:36:13;;;;;;;;;;;;;;;7.47;100.00;104022.41;5037249;28;19924;-79
2021/12/17 10:38:45;;;;;;;;;;;;;;;7.48;100.00;104018.97;5037048;28;20395;-79
2021/12/17 10:41:14;;;;;;;;;;;;;;;7.61;100.00;104015.88;5036875;28;19986;-78
2021/12/17 10:43:46;;;;;;;;;;;;;;;7.60;100.00;104013.09;5036966;28;20671;-80
2021/12/17 10:46:25;;;;;;;;;;;;;;;7.45;100.00;104016.06;5037009;28;20008;-80
2021/12/17 10:49:17;;;;;;;;;;;;;;;7.50;100.00;104011.25;5036757;28;20007;-80
2021/12/17 10:54:09;;;;;;;;;;;;;;;7.47;100.00;104025.03;5054539;28;19928;-79
2021/12/17 10:56:35;;;;;;;;;;;;;;;7.43;100.00;104014.06;5036819;28;19917;-79
2021/12/17 10:59:05;;;;;;;;;;;;;;;7.49;100.00;104015.59;5054187;28;19916;-79
2021/12/17 11:01:36;;;;;;;;;;;;;;;7.37;100.00;104009.13;5037036;28;19958;-79
2021/12/17 11:04:05;;;;;;;;;;;;;;;7.39;100.00;104009.28;5036705;28;20208;-79
2021/12/17 11:06:45;;;;;;;;;;;;;;;7.41;100.00;104012.97;5036704;28;19952;-78
2021/12/17 11:09:10;;;;;;;;;;;;;;;7.39;100.00;104009.28;5036726;28;20008;-79
2021/12/17 11:11:41;;;;;;;;;;;;;;;7.44;100.00;104013.28;5038177;28;19970;-79
2021/12/17 11:14:06;;;;;;;;;;;;;;;7.43;100.00;104012.38;5021147;28;19927;-79
2021/12/17 11:16:32;;;;;;;;;;;;;;;7.36;100.00;104009.91;5036462;28;19916;-79
2021/12/17 11:18:57;;;;;;;;;;;;;;;7.34;100.00;104021.94;5036122;28;19921;-79
2021/12/17 11:21:30;;;;;;;;;;;;;;;7.35;100.00;104019.47;5054407;28;19924;-79
2021/12/17 11:23:56;;;;;;;;;;;;;;;7.34;100.00;104020.22;5019534;28;19920;-79
2021/12/17 11:26:22;;;;;;;;;;;;;;;7.33;100.00;104018.41;5035990;28;20007;-79
2021/12/17 11:28:51;;;;;;;;;;;;;;;7.34;100.00;104020.22;5036011;28;20005;-79
2021/12/17 11:31:17;;;;;;;;;;;;;;;7.33;100.00;104020.06;5035652;28;19923;-79
2021/12/17 11:33:45;;;;;;;;;;;;;;;7.33;100.00;104022.69;5036598;28;19921;-78
2021/12/17 11:36:10;;;;;;;;;;;;;;;7.36;100.00;104025.63;5036185;28;19939;-79
2021/12/17 11:38:45;;;;;;;;;;;;;;;7.37;100.00;104017.00;5036576;28;19916;-79
2021/12/17 11:41:18;;;;;;;;;;;;;;;7.37;100.00;104027.47;5036007;28;19947;-79
2021/12/17 11:43:52;;;;;;;;;;;;;;;7.41;100.00;104032.28;5036184;28;19943;-79
2021/12/17 11:46:25;;;;;;;;;;;;;;;7.36;100.00;104039.69;5035347;28;19986;-79
2021/12/17 11:49:03;;;;;;;;;;;;;;;7.37;100.00;104045.84;5035423;28;19917;-78
2021/12/17 11:51:30;;;;;;;;;;;;;;;7.37;100.00;104041.50;5029803;28;19913;-78
2021/12/17 11:54:00;;;;;;;;;;;;;;;7.36;100.00;104052.78;5035236;28;19921;-78
2021/12/17 11:56:32;;;;;;;;;;;;;;;7.32;100.00;104055.88;5036076;28;20004;-79
2021/12/17 11:59:01;;;;;;;;;;;;;;;7.30;100.00;104059.09;5035237;28;19920;-78
2021/12/17 12:01:45;;;;;;;;;;;;;;;7.33;100.00;104068.22;5035741;28;19920;-77
2021/12/17 12:04:23;;;;;;;;;;;;;;;7.37;100.00;104074.69;5035540;28;19917;-79
2021/12/17 12:06:59;;;;;;;;;;;;;;;7.30;100.00;104082.69;5035326;28;20380;-79
2021/12/17 12:09:45;;;;;;;;;;;;;;;7.30;100.00;104091.50;5035269;28;20269;-78
2021/12/17 12:12:12;;;;;;;;;;;;;;;7.31;100.00;104097.66;5035214;28;19925;-78
2021/12/17 12:14:37;;;;;;;;;;;;;;;7.28;100.00;104095.63;5035613;28;19991;-79
2021/12/17 12:17:03;;;;;;;;;;;;;;;7.33;100.00;104111.84;5019114;28;19948;-78
2021/12/17 12:19:49;;;;;;;;;;;;;;;7.31;100.00;104121.25;5035510;28;19916;-79
2021/12/17 12:22:28;;;;;;;;;;;;;;;7.31;100.00;104126.50;5034768;28;20007;-78
2021/12/17 12:25:12;;;;;;;;;;;;;;;7.28;100.00;104141.91;5035121;28;20280;-78
2021/12/17 12:27:44;;;;;;;;;;;;;;;7.22;100.00;104136.94;5035232;28;20656;-78
2021/12/17 12:30:10;;;;;;;;;;;;;;;7.19;100.00;104136.63;5035368;28;20379;-78
2021/12/17 12:32:55;;;;;;;;;;;;;;;7.27;100.00;104151.47;5035664;28;19916;-78
2021/12/17 12:35:21;;;;;;;;;;;;;;;7.26;100.00;104146.06;5052646;28;20338;-78
2021/12/17 12:38:06;;;;;;;;;;;;;;;7.26;100.00;104140.84;5016967;28;20384;-78
2021/12/17 12:40:34;;;;;;;;;;;;;;;7.22;100.00;104152.69;5035015;28;19959;-77
2021/12/17 12:42:59;;;;;;;;;;;;;;;7.21;100.00;104155.16;5034384;28;19924;-77
2021/12/17 12:45:28;;;;;;;;;;;;;;;7.24;100.00;104163.31;5018013;28;19929;-78
2021/12/17 12:47:58;;;;;;;;;;;;;;;7.27;100.00;104169.81;5034778;28;19917;-76
2021/12/17 12:50:25;;;;;;;;;;;;;;;7.24;100.00;104165.94;5032145;28;19970;-79
2021/12/17 12:53:11;;;;;;;;;;;;;;;7.28;100.00;104163.78;5038720;28;19951;-78
2021/12/17 12:55:48;;;;;;;;;;;;;;;7.24;100.00;104164.28;5038196;28;19917;-78
2021/12/17 12:58:17;;;;;;;;;;;;;;;7.27;100.00;104167.22;5038388;28;19916;-78
2021/12/17 13:00:45;;;;;;;;;;;;;;;7.27;100.00;104163.63;5038288;28;20002;-78
2021/12/17 13:03:23;;;;;;;;;;;;;;;7.16;100.00;104152.03;5038035;28;19916;-78
2021/12/17 13:05:49;;;;;;;;;;;;;;;7.12;100.00;104148.19;5038712;28;20280;-78
2021/12/17 13:08:16;;;;;;;;;;;;;;;7.12;100.00;104163.00;5038563;28;19938;-78
2021/12/17 13:10:44;;;;;;;;;;;;;;;7.08;100.00;104159.13;5038392;28;19948;-78
2021/12/17 13:13:18;;;;;;;;;;;;;;;7.15;100.00;104153.75;5056244;28;19916;-78
2021/12/17 13:15:49;;;;;;;;;;;;;;;7.14;100.00;104153.59;5038404;28;19918;-78
2021/12/17 13:24:06;;;;;;;;;;;;;;;7.05;100.00;104155.28;5055420;28;20031;-78
2021/12/17 13:26:31;;;;;;;;;;;;;;;7.00;100.00;104154.78;5038500;28;19916;-78
2021/12/17 13:29:15;;;;;;;;;;;;;;;7.03;100.00;104157.72;5037469;28;19924;-79
2021/12/17 13:31:49;;;;;;;;;;;;;;;7.04;100.00;104151.72;5037676;28;19923;-79
2021/12/17 13:34:14;;;;;;;;;;;;;;;7.01;100.00;104151.41;5037631;28;20072;-77
2021/12/17 13:37:03;;;;;;;;;;;;;;;6.97;100.00;104154.47;5037972;28;20269;-79
2021/12/17 13:39:49;;;;;;;;;;;;;;;7.04;100.00;104154.34;5031250;28;19966;-78
2021/12/17 13:42:17;;;;;;;;;;;;;;;7.01;100.00;104152.34;5037158;28;19920;-79
2021/12/17 13:44:44;;;;;;;;;;;;;;;7.01;100.00;104156.66;5037638;28;19917;-78
2021/12/17 13:47:15;;;;;;;;;;;;;;;6.97;100.00;104157.09;5037452;28;19962;-78
2021/12/17 13:49:43;;;;;;;;;;;;;;;7.01;100.00;104167.13;5037852;28;19963;-78
2021/12/17 13:52:09;;;;;;;;;;;;;;;7.00;100.00;104174.06;5037291;28;19916;-78
2021/12/17 13:54:35;;;;;;;;;;;;;;;6.98;100.00;104158.97;5037592;28;19917;-78
2021/12/17 13:57:02;;;;;;;;;;;;;;;6.93;100.00;104147.06;5036953;28;19917;-78
2021/12/17 13:59:29;;;;;;;;;;;;;;;7.00;100.00;104150.47;5037170;28;19966;-79
2021/12/17 14:01:54;;;;;;;;;;;;;;;7.00;100.00;104155.72;5053183;28;20267;-78
2021/12/17 14:04:20;;;;;;;;;;;;;;;7.01;100.00;104149.72;5037529;28;19917;-78
2021/12/17 14:06:52;;;;;;;;;;;;;;;7.07;100.00;104144.19;5037449;28;20352;-78
2021/12/17 14:09:19;;;;;;;;;;;;;;;7.04;100.00;104151.72;5037640;28;19925;-78
2021/12/17 14:11:45;;;;;;;;;;;;;;;7.09;100.00;104150.50;5036987;28;19991;-78
2021/12/17 14:14:26;;;;;;;;;;;;;;;7.09;100.00;104155.75;5037118;28;20328;-79
2021/12/17 14:16:58;;;;;;;;;;;;;;;7.17;100.00;104157.44;5036954;28;19999;-79
2021/12/17 14:19:36;;;;;;;;;;;;;;;7.08;100.00;104159.13;5037374;28;19983;-79
2021/12/17 14:22:01;;;;;;;;;;;;;;;7.04;100.00;104156.03;5037303;28;19916;-79
2021/12/17 14:24:27;;;;;;;;;;;;;;;7.05;100.00;104150.03;5036421;28;19931;-79
2021/12/17 14:26:53;;;;;;;;;;;;;;;7.10;100.00;104156.66;5036403;28;19917;-79
2021/12/17 14:29:18;;;;;;;;;;;;;;;7.04;100.00;104163.88;5037204;28;19928;-79
2021/12/17 14:31:44;;;;;;;;;;;;;;;7.07;100.00;104159.91;5037396;28;19924;-79
2021/12/17 14:34:15;;;;;;;;;;;;;;;7.05;100.00;104157.88;5036890;28;19917;-79
2021/12/17 14:36:41;;;;;;;;;;;;;;;7.03;100.00;104164.69;5037697;28;19955;-79
2021/12/17 14:39:11;;;;;;;;;;;;;;;7.08;100.00;104166.06;5037243;28;19917;-79
2021/12/17 14:41:48;;;;;;;;;;;;;;;7.04;100.00;104154.34;5054769;28;19936;-79
2021/12/17 14:46:54;;;;;;;;;;;;;;;7.09;100.00;104155.75;5054180;28;19920;-79
2021/12/17 14:58:41;;;;;;;;;;;;;;;7.16;100.00;104144.19;5054354;28;19922;-78
2021/12/17 15:03:18;;;;;;;;;;;;;;;7.12;100.00;104148.19;5053566;28;19916;-80
2021/12/17 15:05:43;;;;;;;;;;;;;;;7.14;100.00;104146.66;5054186;28;19917;-78
2021/12/17 15:08:09;;;;;;;;;;;;;;;7.18;100.00;104146.22;5036207;28;20000;-78
2021/12/17 15:10:34;;;;;;;;;;;;;;;7.27;100.00;104140.03;5036406;28;19974;-77
2021/12/17 15:13:00;;;;;;;;;;;;;;;7.25;100.00;104146.84;5035637;28;20054;-78
2021/12/17 15:15:27;;;;;;;;;;;;;;;7.20;100.00;104143.75;5036547;28;20046;-78
2021/12/17 15:17:54;;;;;;;;;;;;;;;7.22;100.00;104150.06;5035845;28;19920;-78
2021/12/17 15:20:21;;;;;;;;;;;;;;;7.24;100.00;104145.91;5035996;28;19916;-77
2021/12/17 15:22:48;;;;;;;;;;;;;;;7.25;100.00;104146.84;5019163;28;20146;-77
2021/12/17 15:25:14;;;;;;;;;;;;;;;7.22;100.00;104146.53;5019443;28;19947;-79
2021/12/17 15:27:42;;;;;;;;;;;;;;;7.19;100.00;104144.50;5035965;28;20421;-79
2021/12/17 15:30:15;;;;;;;;;;;;;;;7.26;100.00;104153.94;5036384;28;19963;-79
2021/12/17 15:32:41;;;;;;;;;;;;;;;7.23;100.00;104149.28;5036374;28;19917;-79
2021/12/17 15:35:06;;;;;;;;;;;;;;;7.19;100.00;104149.75;5035904;28;19962;-79
2021/12/17 15:37:33;;;;;;;;;;;;;;;7.21;100.00;104150.84;5036185;28;20634;-78
2021/12/17 15:39:58;;;;;;;;;;;;;;;7.24;100.00;104150.22;5035957;28;20403;-79